createdAt,value
2022-11-19T00:02:03.815Z,87.20
2022-11-19T00:04:32.067Z,86.60
2022-11-19T00:07:00.385Z,87.46
2022-11-19T00:09:28.259Z,86.71
2022-11-19T00:12:13.569Z,86.06
2022-11-19T00:14:43.045Z,87.32
2022-11-19T00:17:10.904Z,86.91
2022-11-19T00:19:38.698Z,87.14
2022-11-19T00:22:06.778Z,86.78
2022-11-19T00:24:36.992Z,88.20
2022-11-19T00:27:05.123Z,87.18
2022-11-19T00:29:34.203Z,88.71
2022-11-19T00:32:05.450Z,87.60
2022-11-19T00:34:33.355Z,87.03
2022-11-19T00:37:01.281Z,87.71
2022-11-19T00:39:29.066Z,88.22
2022-11-19T00:41:58.913Z,87.23
2022-11-19T00:44:26.632Z,89.31
2022-11-19T00:46:54.398Z,88.23
2022-11-19T00:49:23.543Z,87.47
2022-11-19T00:51:51.456Z,88.16
2022-11-19T00:54:19.747Z,88.58
2022-11-19T00:56:48.395Z,86.99
2022-11-19T00:59:16.638Z,87.25
2022-11-19T01:01:48.995Z,87.08
2022-11-19T01:04:18.531Z,86.89
2022-11-19T01:06:48.078Z,86.67
2022-11-19T01:09:15.865Z,86.93
2022-11-19T01:11:43.621Z,87.21
2022-11-19T01:14:11.868Z,87.36
2022-11-19T01:16:43.000Z,87.13
2022-11-19T01:19:17.017Z,88.46
2022-11-19T01:21:46.721Z,87.38
2022-11-19T01:24:19.309Z,87.38
2022-11-19T01:26:47.130Z,87.25
2022-11-19T01:29:15.289Z,87.52
2022-11-19T01:31:43.100Z,87.75
2022-11-19T01:34:11.111Z,87.47
2022-11-19T01:36:39.066Z,87.38
2022-11-19T01:39:08.243Z,88.83
2022-11-19T01:41:37.032Z,88.36
2022-11-19T01:44:07.503Z,88.12
2022-11-19T01:46:38.391Z,88.99
2022-11-19T01:49:09.893Z,87.75
2022-11-19T01:51:40.550Z,88.87
2022-11-19T01:54:14.802Z,88.41
2022-11-19T01:56:43.836Z,89.92
2022-11-19T01:59:15.486Z,88.89
2022-11-19T02:01:44.593Z,88.17
2022-11-19T02:04:14.375Z,88.31
2022-11-19T02:06:45.104Z,88.99
2022-11-19T02:09:14.291Z,89.51
2022-11-19T02:12:04.055Z,88.30
2022-11-19T02:14:55.351Z,89.10
2022-11-19T02:17:39.356Z,89.07
2022-11-19T02:20:39.916Z,89.73
2022-11-19T02:23:27.570Z,88.77
2022-11-19T02:26:18.347Z,88.96
2022-11-19T02:28:48.766Z,88.72
2022-11-19T02:31:24.064Z,88.39
2022-11-19T02:33:59.034Z,89.54
2022-11-19T02:36:32.501Z,89.47
2022-11-19T02:39:07.589Z,89.70
2022-11-19T02:41:41.756Z,90.27
2022-11-19T02:44:41.250Z,89.54
2022-11-19T02:47:15.189Z,88.65
2022-11-19T02:49:44.981Z,89.76
2022-11-19T02:52:15.246Z,90.18
2022-11-19T02:54:43.023Z,88.98
2022-11-19T02:57:12.535Z,89.53
2022-11-19T03:00:00.867Z,89.02
2022-11-19T03:02:52.408Z,89.78
2022-11-19T03:05:23.040Z,89.72
2022-11-19T03:07:51.482Z,91.15
2022-11-19T03:10:23.910Z,89.73
2022-11-19T03:12:56.627Z,90.15
2022-11-19T03:15:49.290Z,90.93
2022-11-19T03:18:22.222Z,90.52
2022-11-19T03:20:56.950Z,90.96
2022-11-19T03:23:30.530Z,91.73
2022-11-19T03:26:02.545Z,90.24
2022-11-19T03:28:35.183Z,90.72
2022-11-19T03:31:05.356Z,90.34
2022-11-19T03:33:37.688Z,91.20
2022-11-19T03:36:10.726Z,91.30
2022-11-19T03:38:42.090Z,91.44
2022-11-19T03:41:14.152Z,90.57
2022-11-19T03:43:46.102Z,91.08
2022-11-19T03:46:20.741Z,90.67
2022-11-19T03:48:53.525Z,90.62
2022-11-19T03:51:25.334Z,89.87
2022-11-19T03:53:54.120Z,90.49
2022-11-19T03:56:25.420Z,90.84
2022-11-19T03:58:54.399Z,90.47
2022-11-19T04:01:23.229Z,89.90
2022-11-19T04:04:06.377Z,90.21
2022-11-19T04:06:34.202Z,90.92
2022-11-19T04:09:02.246Z,90.65
2022-11-19T04:11:30.065Z,91.17
2022-11-19T04:13:58.116Z,90.47
2022-11-19T04:16:27.494Z,90.38
2022-11-19T04:18:56.793Z,90.19
2022-11-19T04:21:25.412Z,91.03
2022-11-19T04:23:55.457Z,91.33
2022-11-19T04:26:24.420Z,89.58
2022-11-19T04:28:53.272Z,90.18
2022-11-19T04:31:21.210Z,88.75
2022-11-19T04:33:49.076Z,88.54
2022-11-19T04:36:18.131Z,88.49
2022-11-19T04:38:45.906Z,87.88
2022-11-19T04:41:14.168Z,88.36
2022-11-19T04:43:42.209Z,88.95
2022-11-19T04:46:10.314Z,89.15
2022-11-19T04:48:38.085Z,89.53
2022-11-19T04:51:05.989Z,88.94
2022-11-19T04:53:35.537Z,89.03
2022-11-19T04:56:03.448Z,89.63
2022-11-19T04:58:31.371Z,89.47
2022-11-19T05:00:59.411Z,89.13
2022-11-19T05:03:27.461Z,89.54
2022-11-19T05:05:55.281Z,89.32
2022-11-19T05:08:23.895Z,89.86
2022-11-19T05:10:53.223Z,89.67
2022-11-19T05:13:21.523Z,89.11
2022-11-19T05:15:49.694Z,88.58
2022-11-19T05:18:18.402Z,88.76
2022-11-19T05:20:46.218Z,89.15
2022-11-19T05:23:13.981Z,88.82
2022-11-19T05:25:43.294Z,89.77
2022-11-19T05:28:12.501Z,89.27
2022-11-19T05:30:41.264Z,88.99
2022-11-19T05:33:09.367Z,88.77
2022-11-19T05:35:37.196Z,89.09
2022-11-19T05:38:06.553Z,88.80
2022-11-19T05:40:36.282Z,89.08
2022-11-19T05:43:07.962Z,88.83
2022-11-19T05:45:37.972Z,88.46
2022-11-19T05:48:06.915Z,88.48
2022-11-19T05:50:34.801Z,88.80
2022-11-19T05:53:02.665Z,88.85
2022-11-19T05:55:31.169Z,88.52
2022-11-19T05:57:59.013Z,87.94
2022-11-19T06:00:27.343Z,88.01
2022-11-19T06:02:56.624Z,88.97
2022-11-19T06:05:24.388Z,88.53
2022-11-19T06:07:52.349Z,88.25
2022-11-19T06:10:20.147Z,88.62
2022-11-19T06:12:47.903Z,87.95
2022-11-19T06:15:16.009Z,88.71
2022-11-19T06:17:43.936Z,88.13
2022-11-19T06:20:13.539Z,88.33
2022-11-19T06:22:41.332Z,87.88
2022-11-19T06:25:09.922Z,88.43
2022-11-19T06:27:37.653Z,88.39
2022-11-19T06:30:06.655Z,88.45
2022-11-19T06:32:34.639Z,88.77
2022-11-19T06:35:02.427Z,87.96
2022-11-19T06:37:31.629Z,87.60
2022-11-19T06:39:59.499Z,87.58
2022-11-19T06:42:39.162Z,88.13
2022-11-19T06:45:09.389Z,87.73
2022-11-19T06:47:37.955Z,88.31
2022-11-19T06:50:07.081Z,87.94
2022-11-19T06:52:36.297Z,88.38
2022-11-19T06:55:04.322Z,88.06
2022-11-19T06:57:32.164Z,87.80
2022-11-19T06:59:59.930Z,87.53
2022-11-19T07:02:27.997Z,88.68
2022-11-19T07:04:55.815Z,88.46
2022-11-19T07:07:23.816Z,88.05
2022-11-19T07:09:52.953Z,87.97
2022-11-19T07:12:21.998Z,88.17
2022-11-19T07:14:49.920Z,87.89
2022-11-19T07:17:17.708Z,87.70
2022-11-19T07:19:45.597Z,88.38
2022-11-19T07:22:13.401Z,87.47
2022-11-19T07:24:41.193Z,87.89
2022-11-19T07:27:10.299Z,88.15
2022-11-19T07:29:38.720Z,88.05
2022-11-19T07:32:06.593Z,87.77
2022-11-19T07:34:34.473Z,87.45
2022-11-19T07:37:02.323Z,87.41
2022-11-19T07:39:30.242Z,88.14
2022-11-19T07:42:15.623Z,87.24
2022-11-19T07:44:44.721Z,87.44
2022-11-19T07:47:12.578Z,87.56
2022-11-19T07:49:40.351Z,87.03
2022-11-19T07:52:08.120Z,87.76
2022-11-19T07:54:35.844Z,87.32
2022-11-19T07:57:03.632Z,88.10
2022-11-19T07:59:31.404Z,87.31
2022-11-19T08:02:00.610Z,87.52
2022-11-19T08:04:29.120Z,87.59
2022-11-19T08:06:57.091Z,87.68
2022-11-19T08:09:24.941Z,87.31
2022-11-19T08:11:52.626Z,87.71
2022-11-19T08:14:20.483Z,87.59
2022-11-19T08:17:05.772Z,87.99
2022-11-19T08:19:34.992Z,87.04
2022-11-19T08:22:02.830Z,88.09
2022-11-19T08:24:30.705Z,87.62
2022-11-19T08:26:58.542Z,87.90
2022-11-19T08:29:26.333Z,87.94
2022-11-19T08:31:54.189Z,87.30
2022-11-19T08:34:22.302Z,87.66
2022-11-19T08:36:51.887Z,87.17
2022-11-19T08:39:19.769Z,87.44
2022-11-19T08:42:05.159Z,87.85
2022-11-19T08:44:32.982Z,87.54
2022-11-19T08:47:00.677Z,87.83
2022-11-19T08:49:28.624Z,87.23
2022-11-19T08:51:58.545Z,86.95
2022-11-19T08:54:26.403Z,88.01
2022-11-19T08:56:54.460Z,88.11
2022-11-19T08:59:22.544Z,86.89
2022-11-19T09:01:50.951Z,87.10
2022-11-19T09:04:19.274Z,87.40
2022-11-19T09:06:47.319Z,87.23
2022-11-19T09:09:16.566Z,87.43
2022-11-19T09:11:44.462Z,86.82
2022-11-19T09:14:12.355Z,86.88
2022-11-19T09:16:40.235Z,87.20
2022-11-19T09:19:08.008Z,87.51
2022-11-19T09:21:35.815Z,87.87
2022-11-19T09:24:03.582Z,87.51
2022-11-19T09:26:53.082Z,88.12
2022-11-19T09:29:21.228Z,87.52
2022-11-19T09:31:49.092Z,87.21
2022-11-19T09:34:17.393Z,86.41
2022-11-19T09:36:45.532Z,86.83
2022-11-19T09:39:13.594Z,85.79
2022-11-19T09:41:51.174Z,86.42
2022-11-19T09:44:37.292Z,86.16
2022-11-19T09:47:18.365Z,85.59
2022-11-19T09:49:50.285Z,87.42
2022-11-19T09:52:24.095Z,86.18
2022-11-19T09:54:55.541Z,85.73
2022-11-19T09:57:32.932Z,86.64
2022-11-19T10:00:05.428Z,84.91
2022-11-19T10:02:33.414Z,86.14
2022-11-19T10:05:01.473Z,86.25
2022-11-19T10:07:44.860Z,85.75
2022-11-19T10:10:25.043Z,86.15
2022-11-19T10:13:15.595Z,85.54
2022-11-19T10:15:56.028Z,85.35
2022-11-19T10:18:32.106Z,85.08
2022-11-19T10:21:07.615Z,84.63
2022-11-19T10:23:48.331Z,86.32
2022-11-19T10:26:17.632Z,85.74
2022-11-19T10:28:56.776Z,85.71
2022-11-19T10:31:34.074Z,85.39
2022-11-19T10:34:08.723Z,84.98
2022-11-19T10:36:43.360Z,84.70
2022-11-19T10:39:21.126Z,85.20
2022-11-19T10:41:56.857Z,84.34
2022-11-19T10:44:40.126Z,85.74
2022-11-19T10:47:13.921Z,86.60
2022-11-19T10:49:43.907Z,84.27
2022-11-19T10:52:23.537Z,84.35
2022-11-19T10:54:53.912Z,84.07
2022-11-19T10:57:23.202Z,85.74
2022-11-19T10:59:54.842Z,82.80
2022-11-19T11:02:31.856Z,84.63
2022-11-19T11:05:07.731Z,83.00
2022-11-19T11:07:51.305Z,83.09
2022-11-19T11:10:38.725Z,84.06
2022-11-19T11:13:33.602Z,83.47
2022-11-19T11:16:09.670Z,83.40
2022-11-19T11:18:40.638Z,82.21
2022-11-19T11:21:13.220Z,81.51
2022-11-19T11:23:51.672Z,82.59
2022-11-19T11:26:25.294Z,82.33
2022-11-19T11:28:59.949Z,82.11
2022-11-19T11:31:41.013Z,82.84
2022-11-19T11:34:28.641Z,81.40
2022-11-19T11:36:56.770Z,81.18
2022-11-19T11:39:31.367Z,80.60
2022-11-19T11:42:06.315Z,81.23
2022-11-19T11:44:38.251Z,82.48
2022-11-19T11:47:14.408Z,82.05
2022-11-19T11:49:44.827Z,81.87
2022-11-19T11:52:21.534Z,82.24
2022-11-19T11:54:58.486Z,81.88
2022-11-19T11:57:28.081Z,79.99
2022-11-19T11:59:56.325Z,81.12
2022-11-19T12:02:37.035Z,80.04
2022-11-19T12:05:07.316Z,79.32
2022-11-19T12:07:57.585Z,79.96
2022-11-19T12:10:30.234Z,80.53
2022-11-19T12:13:17.300Z,82.65
2022-11-19T12:15:55.853Z,80.18
2022-11-19T12:18:33.759Z,80.97
2022-11-19T12:21:11.667Z,81.70
2022-11-19T12:23:58.194Z,80.17
2022-11-19T12:26:39.673Z,80.35
2022-11-19T12:29:18.888Z,80.10
2022-11-19T12:32:11.190Z,80.53
2022-11-19T12:34:59.518Z,79.40
2022-11-19T12:37:42.838Z,79.92
2022-11-19T12:40:25.933Z,78.21
2022-11-19T12:43:04.212Z,80.20
2022-11-19T12:45:42.765Z,79.54
2022-11-19T12:48:43.833Z,78.48
2022-11-19T12:51:22.600Z,78.88
2022-11-19T12:54:15.216Z,77.39
2022-11-19T12:56:52.086Z,78.95
2022-11-19T12:59:34.973Z,78.32
2022-11-19T13:02:09.264Z,77.98
2022-11-19T13:04:43.980Z,78.23
2022-11-19T13:07:23.163Z,80.70
2022-11-19T13:09:54.330Z,77.51
2022-11-19T13:12:28.905Z,78.38
2022-11-19T13:15:01.720Z,77.77
2022-11-19T13:17:34.404Z,77.46
2022-11-19T13:20:06.075Z,76.66
2022-11-19T13:22:38.764Z,77.99
2022-11-19T13:25:18.360Z,78.09
2022-11-19T13:27:48.727Z,78.32
2022-11-19T13:30:19.409Z,78.76
2022-11-19T13:32:55.281Z,78.64
2022-11-19T13:35:27.256Z,77.37
2022-11-19T13:38:01.875Z,77.40
2022-11-19T13:40:35.982Z,78.28
2022-11-19T13:43:32.146Z,77.87
2022-11-19T13:46:09.410Z,77.26
2022-11-19T13:48:41.836Z,77.73
2022-11-19T13:51:27.831Z,78.02
2022-11-19T13:54:02.647Z,77.10
2022-11-19T13:56:43.740Z,77.46
2022-11-19T13:59:28.038Z,77.60
2022-11-19T14:02:21.144Z,77.51
2022-11-19T14:05:07.104Z,77.19
2022-11-19T14:07:54.597Z,77.03
2022-11-19T14:10:31.905Z,77.61
2022-11-19T14:13:15.664Z,76.97
2022-11-19T14:16:11.346Z,77.29
2022-11-19T14:18:58.858Z,76.84
2022-11-19T14:22:03.828Z,77.25
2022-11-19T14:25:11.684Z,76.90
2022-11-19T14:27:41.078Z,77.47
2022-11-19T14:30:18.076Z,77.78
2022-11-19T14:32:51.535Z,77.98
2022-11-19T14:35:34.084Z,77.93
2022-11-19T14:38:34.719Z,78.72
2022-11-19T14:41:08.229Z,78.15
2022-11-19T14:44:10.021Z,76.97
2022-11-19T14:46:40.554Z,77.91
2022-11-19T14:49:27.580Z,78.52
2022-11-19T14:51:57.597Z,78.44
2022-11-19T14:54:39.360Z,77.64
2022-11-19T14:57:16.489Z,77.16
2022-11-19T14:59:51.589Z,77.63
2022-11-19T15:02:30.531Z,77.53
2022-11-19T15:05:02.880Z,77.78
2022-11-19T15:07:40.909Z,77.33
2022-11-19T15:10:27.895Z,78.74
2022-11-19T15:13:19.245Z,77.73
2022-11-19T15:15:51.608Z,77.92
2022-11-19T15:18:55.826Z,78.56
2022-11-19T15:21:42.961Z,78.89
2022-11-19T15:24:22.620Z,78.02
2022-11-19T15:27:00.231Z,77.95
2022-11-19T15:30:01.125Z,78.09
2022-11-19T15:32:43.898Z,78.52
2022-11-19T15:35:29.523Z,79.46
2022-11-19T15:38:03.496Z,78.91
2022-11-19T15:40:34.922Z,81.64
2022-11-19T15:43:10.201Z,80.96
2022-11-19T15:45:45.034Z,81.32
2022-11-19T15:48:20.211Z,80.30
2022-11-19T15:50:49.591Z,81.37
2022-11-19T15:53:19.423Z,81.50
2022-11-19T15:55:53.213Z,81.94
2022-11-19T15:58:26.653Z,81.12
2022-11-19T16:00:56.435Z,81.87
2022-11-19T16:03:25.849Z,81.83
2022-11-19T16:06:03.672Z,80.71
2022-11-19T16:08:32.241Z,80.09
2022-11-19T16:11:20.488Z,81.69
2022-11-19T16:14:09.993Z,80.45
2022-11-19T16:16:56.407Z,81.43
2022-11-19T16:19:25.637Z,80.60
2022-11-19T16:21:57.322Z,80.23
2022-11-19T16:24:44.524Z,82.00
2022-11-19T16:27:14.224Z,80.36
2022-11-19T16:29:43.794Z,81.18
2022-11-19T16:32:16.919Z,80.47
2022-11-19T16:34:47.034Z,82.00
2022-11-19T16:37:16.832Z,79.98
2022-11-19T16:39:51.241Z,80.82
2022-11-19T16:42:23.005Z,81.80
2022-11-19T16:44:54.666Z,80.22
2022-11-19T16:47:25.314Z,79.82
2022-11-19T16:50:01.770Z,80.97
2022-11-19T16:52:40.866Z,81.57
2022-11-19T16:55:42.974Z,80.77
2022-11-19T16:58:20.494Z,79.71
2022-11-19T17:00:52.121Z,79.62
2022-11-19T17:03:34.324Z,80.49
2022-11-19T17:06:05.163Z,81.17
2022-11-19T17:08:36.466Z,80.06
2022-11-19T17:11:35.940Z,80.97
2022-11-19T17:14:21.281Z,80.07
2022-11-19T17:16:51.758Z,80.39
2022-11-19T17:19:33.233Z,80.73
2022-11-19T17:22:04.720Z,80.62
2022-11-19T17:24:35.418Z,80.37
2022-11-19T17:27:03.424Z,79.45
2022-11-19T17:29:31.276Z,79.76
2022-11-19T17:31:59.342Z,80.47
2022-11-19T17:34:31.674Z,80.35
2022-11-19T17:37:00.605Z,80.16
2022-11-19T17:39:47.809Z,79.98
2022-11-19T17:42:33.521Z,80.31
2022-11-19T17:45:06.033Z,80.46
2022-11-19T17:47:37.327Z,79.84
2022-11-19T17:50:05.928Z,79.54
2022-11-19T17:52:33.900Z,79.77
2022-11-19T17:55:15.147Z,80.07
2022-11-19T17:57:43.425Z,79.54
2022-11-19T18:00:13.516Z,80.29
2022-11-19T18:02:41.256Z,80.09
2022-11-19T18:05:16.298Z,80.24
2022-11-19T18:07:44.602Z,79.93
2022-11-19T18:10:13.866Z,79.45
2022-11-19T18:12:41.673Z,79.31
2022-11-19T18:15:16.576Z,79.27
2022-11-19T18:17:44.866Z,80.11
2022-11-19T18:20:13.308Z,80.40
2022-11-19T18:22:41.522Z,80.27
2022-11-19T18:25:15.961Z,79.13
2022-11-19T18:27:44.056Z,79.76
2022-11-19T18:30:13.535Z,79.68
2022-11-19T18:32:43.882Z,79.58
2022-11-19T18:35:16.854Z,80.19
2022-11-19T18:37:45.438Z,80.31
2022-11-19T18:40:16.218Z,79.35
2022-11-19T18:43:04.976Z,79.95
2022-11-19T18:45:32.253Z,79.39
2022-11-19T18:48:00.810Z,78.93
2022-11-19T18:50:30.308Z,79.43
2022-11-19T18:52:58.582Z,79.54
2022-11-19T18:55:29.474Z,78.71
2022-11-19T18:57:57.423Z,78.68
2022-11-19T19:00:25.522Z,79.14
2022-11-19T19:02:53.934Z,78.93
2022-11-19T19:05:22.052Z,78.89
2022-11-19T19:07:49.981Z,79.46
2022-11-19T19:10:18.056Z,79.33
2022-11-19T19:12:46.398Z,78.66
2022-11-19T19:15:15.300Z,78.57
2022-11-19T19:17:43.095Z,78.47
2022-11-19T19:20:12.325Z,78.41
2022-11-19T19:22:40.295Z,78.66
2022-11-19T19:25:09.111Z,79.13
2022-11-19T19:27:36.977Z,78.16
2022-11-19T19:30:07.406Z,78.23
2022-11-19T19:32:35.205Z,78.34
2022-11-19T19:35:03.012Z,78.03
2022-11-19T19:37:30.845Z,78.18
2022-11-19T19:39:58.735Z,78.22
2022-11-19T19:42:29.508Z,77.98
2022-11-19T19:44:58.588Z,78.52
2022-11-19T19:47:27.864Z,78.76
2022-11-19T19:49:55.731Z,78.15
2022-11-19T19:52:23.650Z,78.56
2022-11-19T19:54:51.582Z,78.58
2022-11-19T19:57:19.454Z,77.89
2022-11-19T19:59:47.748Z,78.81
2022-11-19T20:02:15.836Z,78.68
2022-11-19T20:04:45.031Z,78.97
2022-11-19T20:07:16.821Z,78.12
2022-11-19T20:09:44.768Z,79.54
2022-11-19T20:12:12.549Z,78.24
2022-11-19T20:14:40.318Z,78.75
2022-11-19T20:17:08.292Z,79.27
2022-11-19T20:19:36.129Z,79.60
2022-11-19T20:22:05.407Z,80.08
2022-11-19T20:24:33.254Z,79.43
2022-11-19T20:27:01.143Z,80.35
2022-11-19T20:29:28.910Z,80.24
2022-11-19T20:31:56.956Z,80.19
2022-11-19T20:34:24.988Z,80.29
2022-11-19T20:36:53.750Z,80.59
2022-11-19T20:39:23.315Z,81.09
2022-11-19T20:42:07.827Z,80.45
2022-11-19T20:44:35.550Z,79.79
2022-11-19T20:47:04.598Z,80.09
2022-11-19T20:49:34.265Z,80.74
2022-11-19T20:52:03.286Z,80.41
2022-11-19T20:54:33.148Z,79.84
2022-11-19T20:57:01.330Z,80.16
2022-11-19T20:59:29.643Z,80.18
2022-11-19T21:01:57.955Z,79.63
2022-11-19T21:04:27.232Z,79.38
2022-11-19T21:06:55.216Z,78.96
2022-11-19T21:09:23.317Z,78.82
2022-11-19T21:11:53.183Z,78.49
2022-11-19T21:14:20.970Z,79.04
2022-11-19T21:16:48.865Z,78.70
2022-11-19T21:19:16.809Z,79.55
2022-11-19T21:21:45.655Z,78.69
2022-11-19T21:24:14.092Z,78.37
2022-11-19T21:26:41.882Z,78.92
2022-11-19T21:29:11.306Z,78.84
2022-11-19T21:31:40.502Z,78.03
2022-11-19T21:34:10.087Z,78.02
2022-11-19T21:36:44.646Z,77.97
2022-11-19T21:39:14.083Z,77.41
2022-11-19T21:41:42.202Z,79.25
2022-11-19T21:44:13.330Z,79.02
2022-11-19T21:46:44.490Z,78.27
2022-11-19T21:49:12.328Z,78.08
2022-11-19T21:51:40.251Z,79.53
2022-11-19T21:54:08.191Z,79.57
2022-11-19T21:56:38.753Z,79.28
2022-11-19T21:59:07.658Z,78.81
2022-11-19T22:01:36.820Z,78.91
2022-11-19T22:04:07.544Z,78.94
2022-11-19T22:06:40.077Z,79.29
2022-11-19T22:09:07.961Z,78.88
2022-11-19T22:11:35.889Z,78.85
2022-11-19T22:14:11.027Z,78.53
2022-11-19T22:16:41.525Z,79.21
2022-11-19T22:19:11.613Z,79.75
2022-11-19T22:21:40.180Z,77.88
2022-11-19T22:24:08.087Z,77.78
2022-11-19T22:26:36.036Z,77.95
2022-11-19T22:29:03.846Z,79.10
2022-11-19T22:31:31.781Z,79.59
2022-11-19T22:34:01.453Z,79.32
2022-11-19T22:36:33.224Z,79.04
2022-11-19T22:39:01.342Z,78.44
2022-11-19T22:41:29.167Z,77.95
2022-11-19T22:43:57.043Z,78.35
2022-11-19T22:46:25.033Z,78.35
2022-11-19T22:48:53.721Z,78.62
2022-11-19T22:51:25.328Z,78.96
2022-11-19T22:53:54.770Z,77.57
2022-11-19T22:56:24.546Z,77.96
2022-11-19T22:58:52.639Z,78.66
2022-11-19T23:01:24.318Z,78.59
2022-11-19T23:03:52.544Z,78.43
2022-11-19T23:06:22.749Z,80.00
2022-11-19T23:08:51.094Z,78.37
2022-11-19T23:11:42.209Z,78.20
2022-11-19T23:14:11.275Z,77.93
2022-11-19T23:16:39.805Z,78.22
2022-11-19T23:19:08.069Z,77.63
2022-11-19T23:21:37.640Z,78.99
2022-11-19T23:24:06.037Z,78.16
2022-11-19T23:26:35.393Z,78.47
2022-11-19T23:29:03.696Z,79.18
2022-11-19T23:31:32.954Z,78.32
2022-11-19T23:34:00.851Z,78.00
2022-11-19T23:36:31.038Z,78.18
2022-11-19T23:39:00.693Z,77.71
2022-11-19T23:41:29.358Z,77.30
2022-11-19T23:43:57.501Z,77.38
2022-11-19T23:46:26.699Z,77.97
2022-11-19T23:48:55.946Z,77.12
2022-11-19T23:51:26.903Z,78.00
2022-11-19T23:53:55.465Z,78.57
2022-11-19T23:56:25.617Z,78.85
2022-11-19T23:58:54.798Z,78.51
